sensor_id;sensor_type;location;lat;lon;timestamp;P1;durP1;ratioP1;P2;durP2;ratioP2
70213;SDS011;60138;55.808;37.078;2024-03-02T00:00:35;48.88;;;27.13;;
70213;SDS011;60138;55.808;37.078;2024-03-02T00:03:01;44.77;;;27.30;;
70213;SDS011;60138;55.808;37.078;2024-03-02T00:05:27;51.85;;;27.60;;
70213;SDS011;60138;55.808;37.078;2024-03-02T00:10:22;47.00;;;26.13;;
70213;SDS011;60138;55.808;37.078;2024-03-02T00:12:50;56.75;;;28.13;;
70213;SDS011;60138;55.808;37.078;2024-03-02T00:18:24;48.38;;;27.90;;
70213;SDS011;60138;55.808;37.078;2024-03-02T00:20:54;50.30;;;28.10;;
70213;SDS011;60138;55.808;37.078;2024-03-02T00:23:20;54.00;;;25.45;;
70213;SDS011;60138;55.808;37.078;2024-03-02T00:25:47;50.63;;;27.10;;
70213;SDS011;60138;55.808;37.078;2024-03-02T00:28:19;43.08;;;26.83;;
70213;SDS011;60138;55.808;37.078;2024-03-02T00:33:21;48.55;;;27.15;;
70213;SDS011;60138;55.808;37.078;2024-03-02T00:35:48;44.97;;;26.53;;
70213;SDS011;60138;55.808;37.078;2024-03-02T00:38:15;43.63;;;26.95;;
70213;SDS011;60138;55.808;37.078;2024-03-02T00:40:44;54.40;;;28.40;;
70213;SDS011;60138;55.808;37.078;2024-03-02T00:43:45;55.13;;;27.52;;
70213;SDS011;60138;55.808;37.078;2024-03-02T00:46:18;49.30;;;26.67;;
70213;SDS011;60138;55.808;37.078;2024-03-02T00:48:48;46.13;;;27.95;;
70213;SDS011;60138;55.808;37.078;2024-03-02T00:51:18;46.25;;;26.00;;
70213;SDS011;60138;55.808;37.078;2024-03-02T00:53:44;47.47;;;28.10;;
70213;SDS011;60138;55.808;37.078;2024-03-02T00:56:10;52.17;;;26.40;;
70213;SDS011;60138;55.808;37.078;2024-03-02T00:58:37;48.60;;;28.67;;
70213;SDS011;60138;55.808;37.078;2024-03-02T01:01:03;49.15;;;28.70;;
70213;SDS011;60138;55.808;37.078;2024-03-02T01:03:29;47.58;;;25.48;;
70213;SDS011;60138;55.808;37.078;2024-03-02T01:05:57;46.07;;;26.47;;
70213;SDS011;60138;55.808;37.078;2024-03-02T01:08:23;47.25;;;27.00;;
70213;SDS011;60138;55.808;37.078;2024-03-02T01:10:49;50.63;;;27.88;;
70213;SDS011;60138;55.808;37.078;2024-03-02T01:13:15;51.57;;;28.10;;
70213;SDS011;60138;55.808;37.078;2024-03-02T01:15:41;44.83;;;25.52;;
70213;SDS011;60138;55.808;37.078;2024-03-02T01:18:06;48.55;;;26.17;;
70213;SDS011;60138;55.808;37.078;2024-03-02T01:20:32;51.38;;;26.98;;
70213;SDS011;60138;55.808;37.078;2024-03-02T01:22:58;44.37;;;26.57;;
70213;SDS011;60138;55.808;37.078;2024-03-02T01:25:23;48.05;;;25.17;;
70213;SDS011;60138;55.808;37.078;2024-03-02T01:27:49;47.28;;;26.88;;
70213;SDS011;60138;55.808;37.078;2024-03-02T01:30:15;49.90;;;26.33;;
70213;SDS011;60138;55.808;37.078;2024-03-02T01:32:41;49.13;;;26.33;;
70213;SDS011;60138;55.808;37.078;2024-03-02T01:35:06;49.83;;;26.37;;
70213;SDS011;60138;55.808;37.078;2024-03-02T01:37:32;49.75;;;27.15;;
70213;SDS011;60138;55.808;37.078;2024-03-02T01:39:58;50.90;;;26.95;;
70213;SDS011;60138;55.808;37.078;2024-03-02T01:42:24;51.30;;;25.77;;
70213;SDS011;60138;55.808;37.078;2024-03-02T01:44:50;48.72;;;26.10;;
70213;SDS011;60138;55.808;37.078;2024-03-02T01:47:16;54.53;;;27.40;;
70213;SDS011;60138;55.808;37.078;2024-03-02T01:49:42;65.32;;;32.75;;
70213;SDS011;60138;55.808;37.078;2024-03-02T01:52:08;55.30;;;30.27;;
70213;SDS011;60138;55.808;37.078;2024-03-02T01:54:33;65.55;;;30.75;;
70213;SDS011;60138;55.808;37.078;2024-03-02T01:56:59;71.40;;;32.25;;
70213;SDS011;60138;55.808;37.078;2024-03-02T01:59:25;59.20;;;28.85;;
70213;SDS011;60138;55.808;37.078;2024-03-02T02:01:51;105.95;;;42.83;;
70213;SDS011;60138;55.808;37.078;2024-03-02T02:04:17;123.93;;;54.28;;
70213;SDS011;60138;55.808;37.078;2024-03-02T02:06:46;67.45;;;32.92;;
70213;SDS011;60138;55.808;37.078;2024-03-02T02:09:11;67.45;;;31.50;;
70213;SDS011;60138;55.808;37.078;2024-03-02T02:11:37;65.80;;;29.70;;
70213;SDS011;60138;55.808;37.078;2024-03-02T02:14:03;63.97;;;28.65;;
70213;SDS011;60138;55.808;37.078;2024-03-02T02:16:29;52.90;;;29.02;;
70213;SDS011;60138;55.808;37.078;2024-03-02T02:18:55;51.30;;;29.03;;
70213;SDS011;60138;55.808;37.078;2024-03-02T02:21:24;55.53;;;29.02;;
70213;SDS011;60138;55.808;37.078;2024-03-02T02:23:49;54.53;;;30.52;;
70213;SDS011;60138;55.808;37.078;2024-03-02T02:26:15;56.43;;;27.80;;
70213;SDS011;60138;55.808;37.078;2024-03-02T02:28:41;52.30;;;27.88;;
70213;SDS011;60138;55.808;37.078;2024-03-02T02:31:07;47.17;;;27.80;;
70213;SDS011;60138;55.808;37.078;2024-03-02T02:33:32;50.63;;;29.95;;
70213;SDS011;60138;55.808;37.078;2024-03-02T02:35:58;60.33;;;27.63;;
70213;SDS011;60138;55.808;37.078;2024-03-02T02:38:24;52.80;;;30.33;;
70213;SDS011;60138;55.808;37.078;2024-03-02T02:40:49;50.63;;;27.90;;
70213;SDS011;60138;55.808;37.078;2024-03-02T02:43:15;49.30;;;27.65;;
70213;SDS011;60138;55.808;37.078;2024-03-02T02:45:41;53.85;;;28.70;;
70213;SDS011;60138;55.808;37.078;2024-03-02T02:48:07;51.27;;;27.37;;
70213;SDS011;60138;55.808;37.078;2024-03-02T02:50:32;57.97;;;29.50;;
70213;SDS011;60138;55.808;37.078;2024-03-02T02:52:58;55.63;;;29.65;;
70213;SDS011;60138;55.808;37.078;2024-03-02T02:55:24;55.92;;;31.38;;
70213;SDS011;60138;55.808;37.078;2024-03-02T02:57:49;54.40;;;29.87;;
70213;SDS011;60138;55.808;37.078;2024-03-02T03:00:15;62.20;;;30.92;;
70213;SDS011;60138;55.808;37.078;2024-03-02T03:02:41;60.30;;;33.45;;
70213;SDS011;60138;55.808;37.078;2024-03-02T03:05:09;59.40;;;32.90;;
70213;SDS011;60138;55.808;37.078;2024-03-02T03:07:35;55.42;;;31.33;;
70213;SDS011;60138;55.808;37.078;2024-03-02T03:10:02;53.67;;;29.50;;
70213;SDS011;60138;55.808;37.078;2024-03-02T03:12:30;56.63;;;30.40;;
70213;SDS011;60138;55.808;37.078;2024-03-02T03:14:55;55.73;;;29.07;;
70213;SDS011;60138;55.808;37.078;2024-03-02T03:17:21;52.58;;;30.10;;
70213;SDS011;60138;55.808;37.078;2024-03-02T03:19:47;57.35;;;28.27;;
70213;SDS011;60138;55.808;37.078;2024-03-02T03:22:13;53.75;;;29.08;;
70213;SDS011;60138;55.808;37.078;2024-03-02T03:24:38;53.05;;;28.90;;
70213;SDS011;60138;55.808;37.078;2024-03-02T03:27:04;52.55;;;29.52;;
70213;SDS011;60138;55.808;37.078;2024-03-02T03:29:30;51.57;;;28.20;;
70213;SDS011;60138;55.808;37.078;2024-03-02T03:31:55;55.13;;;28.40;;
70213;SDS011;60138;55.808;37.078;2024-03-02T03:34:21;51.10;;;27.57;;
70213;SDS011;60138;55.808;37.078;2024-03-02T03:36:47;47.05;;;26.65;;
70213;SDS011;60138;55.808;37.078;2024-03-02T03:39:12;51.47;;;26.40;;
70213;SDS011;60138;55.808;37.078;2024-03-02T03:41:40;46.05;;;24.77;;
70213;SDS011;60138;55.808;37.078;2024-03-02T03:44:05;43.30;;;23.20;;
70213;SDS011;60138;55.808;37.078;2024-03-02T03:46:31;40.43;;;24.07;;
70213;SDS011;60138;55.808;37.078;2024-03-02T03:48:57;48.65;;;25.77;;
70213;SDS011;60138;55.808;37.078;2024-03-02T03:51:22;45.27;;;23.80;;
70213;SDS011;60138;55.808;37.078;2024-03-02T03:53:48;43.00;;;24.80;;
70213;SDS011;60138;55.808;37.078;2024-03-02T03:56:14;41.20;;;23.77;;
70213;SDS011;60138;55.808;37.078;2024-03-02T03:58:40;47.78;;;25.52;;
70213;SDS011;60138;55.808;37.078;2024-03-02T04:01:07;43.23;;;24.90;;
70213;SDS011;60138;55.808;37.078;2024-03-02T04:03:32;44.60;;;24.83;;
70213;SDS011;60138;55.808;37.078;2024-03-02T04:05:58;40.97;;;24.97;;
70213;SDS011;60138;55.808;37.078;2024-03-02T04:08:24;45.63;;;25.90;;
70213;SDS011;60138;55.808;37.078;2024-03-02T04:10:50;47.00;;;25.77;;
70213;SDS011;60138;55.808;37.078;2024-03-02T04:13:15;40.92;;;25.10;;
70213;SDS011;60138;55.808;37.078;2024-03-02T04:15:41;42.80;;;26.03;;
70213;SDS011;60138;55.808;37.078;2024-03-02T04:18:07;51.75;;;26.75;;
70213;SDS011;60138;55.808;37.078;2024-03-02T04:20:33;49.87;;;26.53;;
70213;SDS011;60138;55.808;37.078;2024-03-02T04:22:58;47.85;;;25.23;;
70213;SDS011;60138;55.808;37.078;2024-03-02T04:25:24;48.70;;;25.67;;
70213;SDS011;60138;55.808;37.078;2024-03-02T04:27:50;50.70;;;26.05;;
70213;SDS011;60138;55.808;37.078;2024-03-02T04:30:15;48.63;;;26.73;;
70213;SDS011;60138;55.808;37.078;2024-03-02T04:32:41;44.78;;;27.10;;
70213;SDS011;60138;55.808;37.078;2024-03-02T04:35:07;48.08;;;26.92;;
70213;SDS011;60138;55.808;37.078;2024-03-02T04:37:33;50.60;;;26.00;;
70213;SDS011;60138;55.808;37.078;2024-03-02T04:39:59;48.42;;;26.75;;
70213;SDS011;60138;55.808;37.078;2024-03-02T04:42:25;51.30;;;25.20;;
70213;SDS011;60138;55.808;37.078;2024-03-02T04:44:51;49.07;;;28.73;;
70213;SDS011;60138;55.808;37.078;2024-03-02T04:47:17;49.78;;;27.88;;
70213;SDS011;60138;55.808;37.078;2024-03-02T04:49:42;46.60;;;27.93;;
70213;SDS011;60138;55.808;37.078;2024-03-02T04:52:08;50.28;;;26.75;;
70213;SDS011;60138;55.808;37.078;2024-03-02T04:54:34;51.25;;;27.65;;
70213;SDS011;60138;55.808;37.078;2024-03-02T04:57:00;49.17;;;26.53;;
70213;SDS011;60138;55.808;37.078;2024-03-02T04:59:26;49.03;;;26.23;;
70213;SDS011;60138;55.808;37.078;2024-03-02T05:01:51;50.15;;;27.15;;
70213;SDS011;60138;55.808;37.078;2024-03-02T05:04:17;48.07;;;26.23;;
70213;SDS011;60138;55.808;37.078;2024-03-02T05:06:43;51.97;;;26.50;;
70213;SDS011;60138;55.808;37.078;2024-03-02T05:09:09;52.00;;;27.33;;
70213;SDS011;60138;55.808;37.078;2024-03-02T05:11:34;49.30;;;26.67;;
70213;SDS011;60138;55.808;37.078;2024-03-02T05:14:01;45.00;;;25.77;;
70213;SDS011;60138;55.808;37.078;2024-03-02T05:16:26;51.83;;;27.03;;
70213;SDS011;60138;55.808;37.078;2024-03-02T05:18:52;52.05;;;27.15;;
70213;SDS011;60138;55.808;37.078;2024-03-02T05:21:18;58.57;;;28.23;;
70213;SDS011;60138;55.808;37.078;2024-03-02T05:23:43;51.53;;;29.03;;
70213;SDS011;60138;55.808;37.078;2024-03-02T05:26:09;50.53;;;26.42;;
70213;SDS011;60138;55.808;37.078;2024-03-02T05:28:36;53.97;;;26.95;;
70213;SDS011;60138;55.808;37.078;2024-03-02T05:31:02;49.73;;;27.07;;
70213;SDS011;60138;55.808;37.078;2024-03-02T05:33:28;49.90;;;26.23;;
70213;SDS011;60138;55.808;37.078;2024-03-02T05:35:53;49.00;;;25.10;;
70213;SDS011;60138;55.808;37.078;2024-03-02T05:38:19;50.90;;;27.73;;
70213;SDS011;60138;55.808;37.078;2024-03-02T05:40:45;60.30;;;28.87;;
70213;SDS011;60138;55.808;37.078;2024-03-02T05:43:10;55.55;;;29.83;;
70213;SDS011;60138;55.808;37.078;2024-03-02T05:45:36;56.83;;;30.97;;
70213;SDS011;60138;55.808;37.078;2024-03-02T05:48:02;58.75;;;32.30;;
70213;SDS011;60138;55.808;37.078;2024-03-02T05:50:28;57.05;;;29.30;;
70213;SDS011;60138;55.808;37.078;2024-03-02T05:52:53;64.40;;;30.83;;
70213;SDS011;60138;55.808;37.078;2024-03-02T05:55:19;56.33;;;29.52;;
70213;SDS011;60138;55.808;37.078;2024-03-02T05:57:45;59.23;;;29.40;;
70213;SDS011;60138;55.808;37.078;2024-03-02T06:00:10;53.67;;;27.70;;
70213;SDS011;60138;55.808;37.078;2024-03-02T06:02:41;52.63;;;28.20;;
70213;SDS011;60138;55.808;37.078;2024-03-02T06:05:08;54.50;;;27.55;;
70213;SDS011;60138;55.808;37.078;2024-03-02T06:07:33;53.00;;;28.10;;
70213;SDS011;60138;55.808;37.078;2024-03-02T06:09:59;55.93;;;28.33;;
70213;SDS011;60138;55.808;37.078;2024-03-02T06:12:25;63.25;;;30.15;;
70213;SDS011;60138;55.808;37.078;2024-03-02T06:14:51;58.07;;;30.10;;
70213;SDS011;60138;55.808;37.078;2024-03-02T06:17:16;54.35;;;30.25;;
70213;SDS011;60138;55.808;37.078;2024-03-02T06:19:42;57.97;;;30.90;;
70213;SDS011;60138;55.808;37.078;2024-03-02T06:22:08;58.78;;;30.17;;
70213;SDS011;60138;55.808;37.078;2024-03-02T06:24:33;58.43;;;31.30;;
70213;SDS011;60138;55.808;37.078;2024-03-02T06:27:00;65.80;;;31.80;;
70213;SDS011;60138;55.808;37.078;2024-03-02T06:29:26;62.40;;;29.97;;
70213;SDS011;60138;55.808;37.078;2024-03-02T06:31:52;61.10;;;33.38;;
70213;SDS011;60138;55.808;37.078;2024-03-02T06:34:18;69.28;;;35.95;;
70213;SDS011;60138;55.808;37.078;2024-03-02T06:36:43;59.97;;;31.27;;
70213;SDS011;60138;55.808;37.078;2024-03-02T06:39:09;57.00;;;29.52;;
70213;SDS011;60138;55.808;37.078;2024-03-02T06:41:35;59.50;;;29.70;;
70213;SDS011;60138;55.808;37.078;2024-03-02T06:44:00;58.03;;;32.03;;
70213;SDS011;60138;55.808;37.078;2024-03-02T06:46:26;67.03;;;34.25;;
70213;SDS011;60138;55.808;37.078;2024-03-02T06:48:52;68.63;;;33.73;;
70213;SDS011;60138;55.808;37.078;2024-03-02T06:51:17;64.68;;;35.17;;
70213;SDS011;60138;55.808;37.078;2024-03-02T06:53:43;62.07;;;30.90;;
70213;SDS011;60138;55.808;37.078;2024-03-02T06:56:09;61.83;;;32.33;;
70213;SDS011;60138;55.808;37.078;2024-03-02T06:58:35;57.27;;;30.77;;
70213;SDS011;60138;55.808;37.078;2024-03-02T07:01:00;63.58;;;31.27;;
70213;SDS011;60138;55.808;37.078;2024-03-02T07:03:26;61.80;;;32.13;;
70213;SDS011;60138;55.808;37.078;2024-03-02T07:05:52;64.53;;;32.65;;
70213;SDS011;60138;55.808;37.078;2024-03-02T07:08:18;64.83;;;34.13;;
70213;SDS011;60138;55.808;37.078;2024-03-02T07:10:43;61.78;;;32.55;;
70213;SDS011;60138;55.808;37.078;2024-03-02T07:13:09;61.63;;;33.27;;
70213;SDS011;60138;55.808;37.078;2024-03-02T07:15:35;65.45;;;32.88;;
70213;SDS011;60138;55.808;37.078;2024-03-02T07:18:00;61.53;;;33.07;;
70213;SDS011;60138;55.808;37.078;2024-03-02T07:20:26;63.30;;;33.53;;
70213;SDS011;60138;55.808;37.078;2024-03-02T07:22:52;68.93;;;31.05;;
70213;SDS011;60138;55.808;37.078;2024-03-02T07:25:17;67.13;;;32.50;;
70213;SDS011;60138;55.808;37.078;2024-03-02T07:27:44;61.75;;;33.88;;
70213;SDS011;60138;55.808;37.078;2024-03-02T07:30:13;61.22;;;33.30;;
70213;SDS011;60138;55.808;37.078;2024-03-02T07:32:39;66.15;;;33.28;;
70213;SDS011;60138;55.808;37.078;2024-03-02T07:35:05;62.93;;;34.00;;
70213;SDS011;60138;55.808;37.078;2024-03-02T07:37:31;68.18;;;32.95;;
70213;SDS011;60138;55.808;37.078;2024-03-02T07:39:57;67.40;;;36.17;;
70213;SDS011;60138;55.808;37.078;2024-03-02T07:42:23;68.20;;;32.90;;
70213;SDS011;60138;55.808;37.078;2024-03-02T07:44:49;69.75;;;37.25;;
70213;SDS011;60138;55.808;37.078;2024-03-02T07:47:15;71.07;;;35.65;;
70213;SDS011;60138;55.808;37.078;2024-03-02T07:49:40;65.82;;;36.22;;
70213;SDS011;60138;55.808;37.078;2024-03-02T07:52:06;63.65;;;34.70;;
70213;SDS011;60138;55.808;37.078;2024-03-02T07:54:32;63.07;;;35.03;;
70213;SDS011;60138;55.808;37.078;2024-03-02T07:56:57;70.28;;;35.67;;
70213;SDS011;60138;55.808;37.078;2024-03-02T07:59:23;62.67;;;34.47;;
70213;SDS011;60138;55.808;37.078;2024-03-02T08:01:49;72.28;;;32.85;;
70213;SDS011;60138;55.808;37.078;2024-03-02T08:04:15;66.00;;;32.42;;
70213;SDS011;60138;55.808;37.078;2024-03-02T08:06:41;73.22;;;34.55;;
70213;SDS011;60138;55.808;37.078;2024-03-02T08:09:07;72.57;;;36.20;;
70213;SDS011;60138;55.808;37.078;2024-03-02T08:11:33;75.45;;;36.58;;
70213;SDS011;60138;55.808;37.078;2024-03-02T08:13:58;67.27;;;36.83;;
70213;SDS011;60138;55.808;37.078;2024-03-02T08:16:24;62.08;;;32.72;;
70213;SDS011;60138;55.808;37.078;2024-03-02T08:18:50;66.77;;;34.17;;
70213;SDS011;60138;55.808;37.078;2024-03-02T08:21:16;66.15;;;36.08;;
70213;SDS011;60138;55.808;37.078;2024-03-02T08:23:42;71.72;;;35.92;;
70213;SDS011;60138;55.808;37.078;2024-03-02T08:26:09;69.27;;;35.83;;
70213;SDS011;60138;55.808;37.078;2024-03-02T08:28:35;78.35;;;36.03;;
70213;SDS011;60138;55.808;37.078;2024-03-02T08:31:01;68.38;;;38.45;;
70213;SDS011;60138;55.808;37.078;2024-03-02T08:33:27;76.07;;;37.20;;
70213;SDS011;60138;55.808;37.078;2024-03-02T08:35:52;76.88;;;39.10;;
70213;SDS011;60138;55.808;37.078;2024-03-02T08:38:18;67.30;;;36.77;;
70213;SDS011;60138;55.808;37.078;2024-03-02T08:40:44;77.43;;;40.60;;
70213;SDS011;60138;55.808;37.078;2024-03-02T08:43:10;71.93;;;39.37;;
70213;SDS011;60138;55.808;37.078;2024-03-02T08:45:36;73.07;;;42.03;;
70213;SDS011;60138;55.808;37.078;2024-03-02T08:48:02;72.47;;;39.60;;
70213;SDS011;60138;55.808;37.078;2024-03-02T08:50:28;76.37;;;41.77;;
70213;SDS011;60138;55.808;37.078;2024-03-02T08:52:54;74.30;;;38.45;;
70213;SDS011;60138;55.808;37.078;2024-03-02T08:55:20;73.40;;;40.50;;
70213;SDS011;60138;55.808;37.078;2024-03-02T08:57:45;71.00;;;37.95;;
70213;SDS011;60138;55.808;37.078;2024-03-02T09:00:12;76.40;;;38.87;;
70213;SDS011;60138;55.808;37.078;2024-03-02T09:02:37;71.30;;;40.30;;
70213;SDS011;60138;55.808;37.078;2024-03-02T09:05:03;76.05;;;41.08;;
70213;SDS011;60138;55.808;37.078;2024-03-02T09:07:30;75.57;;;40.17;;
70213;SDS011;60138;55.808;37.078;2024-03-02T09:09:55;81.82;;;42.28;;
70213;SDS011;60138;55.808;37.078;2024-03-02T09:12:21;70.60;;;40.43;;
70213;SDS011;60138;55.808;37.078;2024-03-02T09:14:51;74.85;;;42.47;;
70213;SDS011;60138;55.808;37.078;2024-03-02T09:17:17;87.10;;;41.83;;
70213;SDS011;60138;55.808;37.078;2024-03-02T09:19:42;79.68;;;41.58;;
70213;SDS011;60138;55.808;37.078;2024-03-02T09:22:08;74.03;;;40.87;;
70213;SDS011;60138;55.808;37.078;2024-03-02T09:24:33;74.00;;;39.57;;
70213;SDS011;60138;55.808;37.078;2024-03-02T09:26:59;75.32;;;38.53;;
70213;SDS011;60138;55.808;37.078;2024-03-02T09:29:25;83.40;;;42.10;;
70213;SDS011;60138;55.808;37.078;2024-03-02T09:31:51;77.00;;;41.35;;
70213;SDS011;60138;55.808;37.078;2024-03-02T09:34:17;79.60;;;44.90;;
70213;SDS011;60138;55.808;37.078;2024-03-02T09:36:43;82.78;;;42.17;;
70213;SDS011;60138;55.808;37.078;2024-03-02T09:39:09;75.22;;;39.47;;
70213;SDS011;60138;55.808;37.078;2024-03-02T09:41:38;75.93;;;38.70;;
70213;SDS011;60138;55.808;37.078;2024-03-02T09:44:04;71.87;;;39.67;;
70213;SDS011;60138;55.808;37.078;2024-03-02T09:46:30;74.22;;;38.72;;
70213;SDS011;60138;55.808;37.078;2024-03-02T09:48:56;84.90;;;41.80;;
70213;SDS011;60138;55.808;37.078;2024-03-02T09:51:22;74.83;;;39.80;;
70213;SDS011;60138;55.808;37.078;2024-03-02T09:53:48;66.47;;;35.70;;
70213;SDS011;60138;55.808;37.078;2024-03-02T09:56:15;66.47;;;36.10;;
70213;SDS011;60138;55.808;37.078;2024-03-02T09:58:41;72.13;;;38.13;;
70213;SDS011;60138;55.808;37.078;2024-03-02T10:01:07;68.35;;;36.78;;
70213;SDS011;60138;55.808;37.078;2024-03-02T10:03:33;59.72;;;33.55;;
70213;SDS011;60138;55.808;37.078;2024-03-02T10:08:44;72.80;;;35.83;;
70213;SDS011;60138;55.808;37.078;2024-03-02T10:11:09;61.13;;;32.27;;
70213;SDS011;60138;55.808;37.078;2024-03-02T10:13:35;65.60;;;34.78;;
70213;SDS011;60138;55.808;37.078;2024-03-02T10:16:08;64.23;;;34.57;;
70213;SDS011;60138;55.808;37.078;2024-03-02T10:18:37;67.22;;;35.67;;
70213;SDS011;60138;55.808;37.078;2024-03-02T10:21:13;72.00;;;34.53;;
70213;SDS011;60138;55.808;37.078;2024-03-02T10:23:39;65.93;;;33.65;;
70213;SDS011;60138;55.808;37.078;2024-03-02T10:26:13;62.45;;;34.17;;
70213;SDS011;60138;55.808;37.078;2024-03-02T10:28:48;65.75;;;35.42;;
70213;SDS011;60138;55.808;37.078;2024-03-02T10:31:14;70.03;;;33.88;;
70213;SDS011;60138;55.808;37.078;2024-03-02T10:33:40;64.00;;;36.92;;
70213;SDS011;60138;55.808;37.078;2024-03-02T10:36:05;65.05;;;34.70;;
70213;SDS011;60138;55.808;37.078;2024-03-02T10:38:32;67.95;;;36.15;;
70213;SDS011;60138;55.808;37.078;2024-03-02T10:40:58;74.10;;;36.78;;
70213;SDS011;60138;55.808;37.078;2024-03-02T10:43:25;70.30;;;36.47;;
70213;SDS011;60138;55.808;37.078;2024-03-02T10:45:51;68.00;;;36.90;;
70213;SDS011;60138;55.808;37.078;2024-03-02T10:48:18;74.28;;;38.13;;
70213;SDS011;60138;55.808;37.078;2024-03-02T10:50:44;67.35;;;34.30;;
70213;SDS011;60138;55.808;37.078;2024-03-02T10:53:10;74.85;;;38.67;;
70213;SDS011;60138;55.808;37.078;2024-03-02T10:55:36;68.00;;;35.33;;
70213;SDS011;60138;55.808;37.078;2024-03-02T10:58:02;71.20;;;36.90;;
70213;SDS011;60138;55.808;37.078;2024-03-02T11:00:31;71.38;;;37.58;;
70213;SDS011;60138;55.808;37.078;2024-03-02T11:03:04;65.67;;;36.07;;
70213;SDS011;60138;55.808;37.078;2024-03-02T11:05:36;73.05;;;36.95;;
70213;SDS011;60138;55.808;37.078;2024-03-02T11:08:07;72.82;;;37.33;;
70213;SDS011;60138;55.808;37.078;2024-03-02T11:10:34;66.28;;;35.55;;
70213;SDS011;60138;55.808;37.078;2024-03-02T11:13:11;66.32;;;36.15;;
70213;SDS011;60138;55.808;37.078;2024-03-02T11:15:37;65.50;;;35.37;;
70213;SDS011;60138;55.808;37.078;2024-03-02T11:18:09;72.80;;;37.83;;
70213;SDS011;60138;55.808;37.078;2024-03-02T11:20:36;67.30;;;37.17;;
70213;SDS011;60138;55.808;37.078;2024-03-02T11:23:07;65.15;;;35.45;;
70213;SDS011;60138;55.808;37.078;2024-03-02T11:25:34;69.20;;;34.28;;
70213;SDS011;60138;55.808;37.078;2024-03-02T11:28:00;65.80;;;33.13;;
70213;SDS011;60138;55.808;37.078;2024-03-02T11:33:04;55.70;;;30.85;;
70213;SDS011;60138;55.808;37.078;2024-03-02T11:35:33;54.70;;;29.40;;
70213;SDS011;60138;55.808;37.078;2024-03-02T11:38:02;51.33;;;28.50;;
70213;SDS011;60138;55.808;37.078;2024-03-02T11:40:29;54.63;;;28.23;;
70213;SDS011;60138;55.808;37.078;2024-03-02T11:42:55;49.42;;;25.00;;
70213;SDS011;60138;55.808;37.078;2024-03-02T11:45:25;55.88;;;30.02;;
70213;SDS011;60138;55.808;37.078;2024-03-02T11:47:55;54.10;;;28.42;;
70213;SDS011;60138;55.808;37.078;2024-03-02T11:50:35;61.35;;;30.73;;
70213;SDS011;60138;55.808;37.078;2024-03-02T11:53:06;57.70;;;29.33;;
70213;SDS011;60138;55.808;37.078;2024-03-02T11:55:36;57.80;;;31.40;;
70213;SDS011;60138;55.808;37.078;2024-03-02T11:58:03;61.03;;;30.30;;
70213;SDS011;60138;55.808;37.078;2024-03-02T12:00:29;66.60;;;33.78;;
70213;SDS011;60138;55.808;37.078;2024-03-02T12:03:08;65.23;;;33.07;;
70213;SDS011;60138;55.808;37.078;2024-03-02T12:05:37;56.83;;;30.33;;
70213;SDS011;60138;55.808;37.078;2024-03-02T12:08:06;64.53;;;32.83;;
70213;SDS011;60138;55.808;37.078;2024-03-02T12:10:33;58.42;;;32.20;;
70213;SDS011;60138;55.808;37.078;2024-03-02T12:13:00;60.67;;;30.17;;
70213;SDS011;60138;55.808;37.078;2024-03-02T12:15:30;60.80;;;30.80;;
70213;SDS011;60138;55.808;37.078;2024-03-02T12:17:58;61.78;;;33.53;;
70213;SDS011;60138;55.808;37.078;2024-03-02T12:20:26;53.65;;;31.75;;
70213;SDS011;60138;55.808;37.078;2024-03-02T12:22:57;59.88;;;31.17;;
70213;SDS011;60138;55.808;37.078;2024-03-02T12:25:24;59.33;;;32.00;;
70213;SDS011;60138;55.808;37.078;2024-03-02T12:27:52;59.90;;;32.55;;
70213;SDS011;60138;55.808;37.078;2024-03-02T12:30:20;57.17;;;32.88;;
70213;SDS011;60138;55.808;37.078;2024-03-02T12:32:46;64.15;;;31.63;;
70213;SDS011;60138;55.808;37.078;2024-03-02T12:35:12;62.22;;;32.10;;
70213;SDS011;60138;55.808;37.078;2024-03-02T12:37:45;57.67;;;32.27;;
70213;SDS011;60138;55.808;37.078;2024-03-02T12:40:15;57.53;;;30.17;;
70213;SDS011;60138;55.808;37.078;2024-03-02T12:42:42;59.53;;;30.52;;
70213;SDS011;60138;55.808;37.078;2024-03-02T12:45:08;57.15;;;29.70;;
70213;SDS011;60138;55.808;37.078;2024-03-02T12:47:34;62.03;;;31.67;;
70213;SDS011;60138;55.808;37.078;2024-03-02T12:50:01;57.63;;;29.95;;
70213;SDS011;60138;55.808;37.078;2024-03-02T12:52:29;64.45;;;31.73;;
70213;SDS011;60138;55.808;37.078;2024-03-02T12:54:55;60.33;;;31.25;;
70213;SDS011;60138;55.808;37.078;2024-03-02T12:57:21;66.90;;;31.47;;
70213;SDS011;60138;55.808;37.078;2024-03-02T12:59:51;60.78;;;30.00;;
70213;SDS011;60138;55.808;37.078;2024-03-02T13:02:17;55.28;;;30.08;;
70213;SDS011;60138;55.808;37.078;2024-03-02T13:04:43;52.67;;;29.02;;
70213;SDS011;60138;55.808;37.078;2024-03-02T13:07:10;65.00;;;30.83;;
70213;SDS011;60138;55.808;37.078;2024-03-02T13:09:36;61.40;;;29.30;;
70213;SDS011;60138;55.808;37.078;2024-03-02T13:12:02;54.85;;;29.23;;
70213;SDS011;60138;55.808;37.078;2024-03-02T13:14:28;60.92;;;30.27;;
70213;SDS011;60138;55.808;37.078;2024-03-02T13:16:57;52.70;;;27.17;;
70213;SDS011;60138;55.808;37.078;2024-03-02T13:19:23;59.75;;;29.15;;
70213;SDS011;60138;55.808;37.078;2024-03-02T13:21:48;57.80;;;28.70;;
70213;SDS011;60138;55.808;37.078;2024-03-02T13:24:14;55.33;;;29.00;;
70213;SDS011;60138;55.808;37.078;2024-03-02T13:26:40;50.95;;;28.50;;
70213;SDS011;60138;55.808;37.078;2024-03-02T13:29:06;58.00;;;30.25;;
70213;SDS011;60138;55.808;37.078;2024-03-02T13:31:31;56.40;;;29.45;;
70213;SDS011;60138;55.808;37.078;2024-03-02T13:33:57;54.80;;;28.92;;
70213;SDS011;60138;55.808;37.078;2024-03-02T13:36:23;55.17;;;28.33;;
70213;SDS011;60138;55.808;37.078;2024-03-02T13:38:48;54.42;;;29.88;;
70213;SDS011;60138;55.808;37.078;2024-03-02T13:41:14;56.90;;;29.27;;
70213;SDS011;60138;55.808;37.078;2024-03-02T13:43:40;59.30;;;30.08;;
70213;SDS011;60138;55.808;37.078;2024-03-02T13:46:06;61.67;;;32.13;;
70213;SDS011;60138;55.808;37.078;2024-03-02T13:48:32;61.87;;;31.27;;
70213;SDS011;60138;55.808;37.078;2024-03-02T13:50:58;58.63;;;30.15;;
70213;SDS011;60138;55.808;37.078;2024-03-02T13:53:23;56.40;;;32.08;;
70213;SDS011;60138;55.808;37.078;2024-03-02T13:55:49;56.65;;;29.55;;
70213;SDS011;60138;55.808;37.078;2024-03-02T13:58:15;61.28;;;31.08;;
70213;SDS011;60138;55.808;37.078;2024-03-02T14:00:40;56.37;;;29.57;;
70213;SDS011;60138;55.808;37.078;2024-03-02T14:03:09;57.83;;;30.02;;
70213;SDS011;60138;55.808;37.078;2024-03-02T14:05:34;58.40;;;30.33;;
70213;SDS011;60138;55.808;37.078;2024-03-02T14:08:00;54.40;;;29.25;;
70213;SDS011;60138;55.808;37.078;2024-03-02T14:10:26;54.38;;;28.17;;
70213;SDS011;60138;55.808;37.078;2024-03-02T14:12:52;68.72;;;34.72;;
70213;SDS011;60138;55.808;37.078;2024-03-02T14:15:18;64.43;;;31.70;;
70213;SDS011;60138;55.808;37.078;2024-03-02T14:17:43;58.87;;;30.87;;